sensor_id;sensor_type;location;lat;lon;timestamp;P1;durP1;ratioP1;P2;durP2;ratioP2
44955;SDS011;30686;52.512;-1.188;2022-09-14T00:01:25;7.15;;;2.38;;
44955;SDS011;30686;52.512;-1.188;2022-09-14T00:03:59;6.07;;;1.50;;
44955;SDS011;30686;52.512;-1.188;2022-09-14T00:06:26;3.38;;;1.50;;
44955;SDS011;30686;52.512;-1.188;2022-09-14T00:08:53;5.10;;;1.55;;
44955;SDS011;30686;52.512;-1.188;2022-09-14T00:11:20;3.42;;;1.55;;
44955;SDS011;30686;52.512;-1.188;2022-09-14T00:13:47;9.05;;;2.58;;
44955;SDS011;30686;52.512;-1.188;2022-09-14T00:16:15;4.57;;;1.60;;
44955;SDS011;30686;52.512;-1.188;2022-09-14T00:18:42;4.65;;;1.35;;
44955;SDS011;30686;52.512;-1.188;2022-09-14T00:21:09;3.83;;;1.30;;
44955;SDS011;30686;52.512;-1.188;2022-09-14T00:23:36;4.43;;;1.33;;
44955;SDS011;30686;52.512;-1.188;2022-09-14T00:26:04;5.93;;;1.70;;
44955;SDS011;30686;52.512;-1.188;2022-09-14T00:28:35;6.50;;;1.60;;
44955;SDS011;30686;52.512;-1.188;2022-09-14T00:31:02;5.88;;;1.75;;
44955;SDS011;30686;52.512;-1.188;2022-09-14T00:33:28;3.10;;;1.20;;
44955;SDS011;30686;52.512;-1.188;2022-09-14T00:35:55;5.25;;;2.17;;
44955;SDS011;30686;52.512;-1.188;2022-09-14T00:38:21;5.68;;;2.20;;
44955;SDS011;30686;52.512;-1.188;2022-09-14T00:40:59;4.53;;;1.45;;
44955;SDS011;30686;52.512;-1.188;2022-09-14T00:43:26;7.28;;;1.55;;
44955;SDS011;30686;52.512;-1.188;2022-09-14T00:45:52;5.30;;;1.58;;
44955;SDS011;30686;52.512;-1.188;2022-09-14T00:48:19;3.83;;;1.55;;
44955;SDS011;30686;52.512;-1.188;2022-09-14T00:50:47;4.05;;;2.47;;
44955;SDS011;30686;52.512;-1.188;2022-09-14T00:53:13;2.95;;;1.60;;
44955;SDS011;30686;52.512;-1.188;2022-09-14T00:55:39;4.35;;;1.60;;
44955;SDS011;30686;52.512;-1.188;2022-09-14T00:58:05;4.07;;;1.45;;
44955;SDS011;30686;52.512;-1.188;2022-09-14T01:00:32;3.03;;;1.38;;
44955;SDS011;30686;52.512;-1.188;2022-09-14T01:02:58;4.75;;;2.05;;
44955;SDS011;30686;52.512;-1.188;2022-09-14T01:05:33;3.25;;;1.83;;
44955;SDS011;30686;52.512;-1.188;2022-09-14T01:13:21;5.07;;;1.58;;
44955;SDS011;30686;52.512;-1.188;2022-09-14T01:16:01;4.05;;;2.17;;
44955;SDS011;30686;52.512;-1.188;2022-09-14T01:18:31;5.05;;;1.50;;
44955;SDS011;30686;52.512;-1.188;2022-09-14T01:21:01;3.42;;;1.52;;
44955;SDS011;30686;52.512;-1.188;2022-09-14T01:25:59;1.90;;;1.17;;
44955;SDS011;30686;52.512;-1.188;2022-09-14T01:30:59;2.30;;;1.33;;
44955;SDS011;30686;52.512;-1.188;2022-09-14T01:33:28;10.02;;;1.70;;
44955;SDS011;30686;52.512;-1.188;2022-09-14T01:35:57;2.17;;;1.20;;
44955;SDS011;30686;52.512;-1.188;2022-09-14T01:38:32;3.78;;;1.50;;
44955;SDS011;30686;52.512;-1.188;2022-09-14T01:40:59;5.05;;;1.70;;
44955;SDS011;30686;52.512;-1.188;2022-09-14T01:43:32;9.15;;;3.97;;
44955;SDS011;30686;52.512;-1.188;2022-09-14T01:46:02;6.18;;;1.83;;
44955;SDS011;30686;52.512;-1.188;2022-09-14T01:48:31;6.35;;;2.35;;
44955;SDS011;30686;52.512;-1.188;2022-09-14T01:50:59;7.05;;;1.67;;
44955;SDS011;30686;52.512;-1.188;2022-09-14T01:53:46;7.30;;;1.80;;
44955;SDS011;30686;52.512;-1.188;2022-09-14T01:56:18;2.88;;;1.50;;
44955;SDS011;30686;52.512;-1.188;2022-09-14T02:01:33;4.03;;;1.52;;
44955;SDS011;30686;52.512;-1.188;2022-09-14T02:04:01;4.13;;;1.60;;
44955;SDS011;30686;52.512;-1.188;2022-09-14T02:06:39;4.05;;;1.65;;
44955;SDS011;30686;52.512;-1.188;2022-09-14T02:09:06;7.07;;;1.80;;
44955;SDS011;30686;52.512;-1.188;2022-09-14T02:11:33;6.72;;;1.80;;
44955;SDS011;30686;52.512;-1.188;2022-09-14T02:14:00;5.80;;;2.38;;
44955;SDS011;30686;52.512;-1.188;2022-09-14T02:16:26;6.32;;;1.85;;
44955;SDS011;30686;52.512;-1.188;2022-09-14T02:18:53;4.35;;;1.88;;
44955;SDS011;30686;52.512;-1.188;2022-09-14T02:21:21;3.80;;;1.58;;
44955;SDS011;30686;52.512;-1.188;2022-09-14T02:23:48;4.68;;;1.75;;
44955;SDS011;30686;52.512;-1.188;2022-09-14T02:26:15;5.70;;;2.00;;
44955;SDS011;30686;52.512;-1.188;2022-09-14T02:28:42;4.88;;;2.00;;
44955;SDS011;30686;52.512;-1.188;2022-09-14T02:34:04;5.65;;;2.15;;
44955;SDS011;30686;52.512;-1.188;2022-09-14T02:36:38;7.80;;;1.85;;
44955;SDS011;30686;52.512;-1.188;2022-09-14T02:39:16;6.35;;;2.00;;
44955;SDS011;30686;52.512;-1.188;2022-09-14T02:41:47;7.70;;;2.00;;
44955;SDS011;30686;52.512;-1.188;2022-09-14T02:44:21;6.22;;;2.35;;
44955;SDS011;30686;52.512;-1.188;2022-09-14T02:47:00;5.60;;;1.60;;
44955;SDS011;30686;52.512;-1.188;2022-09-14T02:54:56;4.18;;;2.55;;
44955;SDS011;30686;52.512;-1.188;2022-09-14T02:57:23;5.75;;;2.20;;
44955;SDS011;30686;52.512;-1.188;2022-09-14T02:59:52;4.22;;;2.20;;
44955;SDS011;30686;52.512;-1.188;2022-09-14T03:02:18;4.60;;;2.25;;
44955;SDS011;30686;52.512;-1.188;2022-09-14T03:04:44;6.18;;;2.60;;
44955;SDS011;30686;52.512;-1.188;2022-09-14T03:07:10;4.88;;;2.28;;
44955;SDS011;30686;52.512;-1.188;2022-09-14T03:09:36;4.40;;;2.30;;
44955;SDS011;30686;52.512;-1.188;2022-09-14T03:12:03;5.93;;;2.17;;
44955;SDS011;30686;52.512;-1.188;2022-09-14T03:14:29;5.05;;;2.10;;
44955;SDS011;30686;52.512;-1.188;2022-09-14T03:16:55;3.58;;;1.92;;
44955;SDS011;30686;52.512;-1.188;2022-09-14T03:19:21;5.45;;;2.28;;
44955;SDS011;30686;52.512;-1.188;2022-09-14T03:21:47;8.75;;;2.40;;
44955;SDS011;30686;52.512;-1.188;2022-09-14T03:24:13;6.43;;;2.53;;
44955;SDS011;30686;52.512;-1.188;2022-09-14T03:26:39;4.40;;;2.70;;
44955;SDS011;30686;52.512;-1.188;2022-09-14T03:29:05;8.85;;;3.00;;
44955;SDS011;30686;52.512;-1.188;2022-09-14T03:31:32;6.82;;;2.92;;
44955;SDS011;30686;52.512;-1.188;2022-09-14T03:33:59;6.10;;;2.20;;
44955;SDS011;30686;52.512;-1.188;2022-09-14T03:36:26;4.80;;;2.75;;
44955;SDS011;30686;52.512;-1.188;2022-09-14T03:38:53;4.78;;;2.70;;
44955;SDS011;30686;52.512;-1.188;2022-09-14T03:41:20;5.10;;;2.92;;
44955;SDS011;30686;52.512;-1.188;2022-09-14T03:43:47;6.28;;;2.72;;
44955;SDS011;30686;52.512;-1.188;2022-09-14T03:46:14;7.45;;;2.65;;
44955;SDS011;30686;52.512;-1.188;2022-09-14T03:48:41;6.18;;;2.60;;
44955;SDS011;30686;52.512;-1.188;2022-09-14T03:51:09;11.77;;;2.60;;
44955;SDS011;30686;52.512;-1.188;2022-09-14T03:53:35;8.40;;;2.42;;
44955;SDS011;30686;52.512;-1.188;2022-09-14T03:56:09;5.50;;;2.58;;
44955;SDS011;30686;52.512;-1.188;2022-09-14T03:58:35;5.57;;;1.97;;
44955;SDS011;30686;52.512;-1.188;2022-09-14T04:03:30;11.55;;;2.55;;
44955;SDS011;30686;52.512;-1.188;2022-09-14T04:05:57;4.43;;;2.10;;
44955;SDS011;30686;52.512;-1.188;2022-09-14T04:08:23;3.63;;;2.05;;
44955;SDS011;30686;52.512;-1.188;2022-09-14T04:10:50;13.30;;;2.60;;
44955;SDS011;30686;52.512;-1.188;2022-09-14T04:13:16;5.95;;;2.40;;
44955;SDS011;30686;52.512;-1.188;2022-09-14T04:15:42;5.30;;;2.28;;
44955;SDS011;30686;52.512;-1.188;2022-09-14T04:18:08;4.18;;;1.98;;
44955;SDS011;30686;52.512;-1.188;2022-09-14T04:20:34;5.47;;;2.35;;
44955;SDS011;30686;52.512;-1.188;2022-09-14T04:23:01;7.60;;;1.92;;
44955;SDS011;30686;52.512;-1.188;2022-09-14T04:25:27;5.50;;;2.35;;
44955;SDS011;30686;52.512;-1.188;2022-09-14T04:27:54;8.00;;;2.35;;
44955;SDS011;30686;52.512;-1.188;2022-09-14T04:30:20;4.07;;;2.28;;
44955;SDS011;30686;52.512;-1.188;2022-09-14T04:32:46;5.93;;;2.58;;
44955;SDS011;30686;52.512;-1.188;2022-09-14T04:35:12;6.53;;;2.63;;
44955;SDS011;30686;52.512;-1.188;2022-09-14T04:37:38;6.40;;;2.60;;
44955;SDS011;30686;52.512;-1.188;2022-09-14T04:40:04;7.75;;;2.40;;
44955;SDS011;30686;52.512;-1.188;2022-09-14T04:42:31;6.90;;;2.47;;
44955;SDS011;30686;52.512;-1.188;2022-09-14T04:44:57;7.10;;;2.58;;
44955;SDS011;30686;52.512;-1.188;2022-09-14T04:47:24;6.97;;;2.17;;
44955;SDS011;30686;52.512;-1.188;2022-09-14T04:49:50;8.05;;;2.35;;
44955;SDS011;30686;52.512;-1.188;2022-09-14T04:52:16;6.43;;;2.55;;
44955;SDS011;30686;52.512;-1.188;2022-09-14T04:54:42;6.05;;;2.30;;
44955;SDS011;30686;52.512;-1.188;2022-09-14T04:57:08;5.15;;;2.90;;
44955;SDS011;30686;52.512;-1.188;2022-09-14T04:59:35;7.70;;;2.13;;
44955;SDS011;30686;52.512;-1.188;2022-09-14T05:02:01;8.30;;;2.70;;
44955;SDS011;30686;52.512;-1.188;2022-09-14T05:04:27;8.07;;;2.65;;
44955;SDS011;30686;52.512;-1.188;2022-09-14T05:06:53;7.60;;;2.90;;
44955;SDS011;30686;52.512;-1.188;2022-09-14T05:09:20;5.20;;;2.67;;
44955;SDS011;30686;52.512;-1.188;2022-09-14T05:11:46;7.68;;;2.53;;
44955;SDS011;30686;52.512;-1.188;2022-09-14T05:14:15;5.85;;;3.22;;
44955;SDS011;30686;52.512;-1.188;2022-09-14T05:16:42;64.35;;;6.40;;
44955;SDS011;30686;52.512;-1.188;2022-09-14T05:19:10;75.22;;;6.40;;
44955;SDS011;30686;52.512;-1.188;2022-09-14T05:21:37;15.20;;;4.65;;
44955;SDS011;30686;52.512;-1.188;2022-09-14T05:24:05;18.15;;;4.03;;
44955;SDS011;30686;52.512;-1.188;2022-09-14T05:26:32;6.93;;;3.30;;
44955;SDS011;30686;52.512;-1.188;2022-09-14T05:28:59;16.23;;;3.80;;
44955;SDS011;30686;52.512;-1.188;2022-09-14T05:31:26;14.65;;;4.55;;
44955;SDS011;30686;52.512;-1.188;2022-09-14T05:33:52;12.80;;;4.60;;
44955;SDS011;30686;52.512;-1.188;2022-09-14T05:36:19;6.75;;;3.30;;
44955;SDS011;30686;52.512;-1.188;2022-09-14T05:38:45;9.38;;;4.18;;
44955;SDS011;30686;52.512;-1.188;2022-09-14T05:41:12;9.55;;;3.65;;
44955;SDS011;30686;52.512;-1.188;2022-09-14T05:43:38;11.32;;;3.65;;
44955;SDS011;30686;52.512;-1.188;2022-09-14T05:46:06;9.52;;;3.28;;
44955;SDS011;30686;52.512;-1.188;2022-09-14T05:48:33;27.25;;;4.07;;
44955;SDS011;30686;52.512;-1.188;2022-09-14T05:50:59;30.80;;;3.97;;
44955;SDS011;30686;52.512;-1.188;2022-09-14T05:53:26;17.98;;;3.42;;
44955;SDS011;30686;52.512;-1.188;2022-09-14T05:56:00;11.15;;;3.28;;
44955;SDS011;30686;52.512;-1.188;2022-09-14T05:58:26;7.78;;;3.65;;
44955;SDS011;30686;52.512;-1.188;2022-09-14T06:00:52;29.67;;;3.58;;
44955;SDS011;30686;52.512;-1.188;2022-09-14T06:03:18;44.17;;;4.05;;
44955;SDS011;30686;52.512;-1.188;2022-09-14T06:05:44;37.25;;;4.72;;
44955;SDS011;30686;52.512;-1.188;2022-09-14T06:08:11;27.35;;;3.65;;
44955;SDS011;30686;52.512;-1.188;2022-09-14T06:10:37;31.80;;;4.35;;
44955;SDS011;30686;52.512;-1.188;2022-09-14T06:13:03;69.18;;;5.88;;
44955;SDS011;30686;52.512;-1.188;2022-09-14T06:15:29;18.27;;;3.70;;
44955;SDS011;30686;52.512;-1.188;2022-09-14T06:17:55;6.65;;;3.60;;
44955;SDS011;30686;52.512;-1.188;2022-09-14T06:20:22;6.53;;;3.40;;
44955;SDS011;30686;52.512;-1.188;2022-09-14T06:22:48;6.30;;;3.28;;
44955;SDS011;30686;52.512;-1.188;2022-09-14T06:25:14;7.15;;;3.90;;
44955;SDS011;30686;52.512;-1.188;2022-09-14T06:27:41;6.20;;;3.90;;
44955;SDS011;30686;52.512;-1.188;2022-09-14T06:30:08;5.53;;;3.20;;
44955;SDS011;30686;52.512;-1.188;2022-09-14T06:32:40;6.22;;;3.63;;
44955;SDS011;30686;52.512;-1.188;2022-09-14T06:35:06;6.05;;;3.42;;
44955;SDS011;30686;52.512;-1.188;2022-09-14T06:37:34;7.78;;;3.92;;
44955;SDS011;30686;52.512;-1.188;2022-09-14T06:40:02;8.10;;;3.58;;
44955;SDS011;30686;52.512;-1.188;2022-09-14T06:42:29;9.75;;;3.92;;
44955;SDS011;30686;52.512;-1.188;2022-09-14T06:44:56;7.15;;;3.75;;
44955;SDS011;30686;52.512;-1.188;2022-09-14T06:47:24;6.60;;;3.63;;
44955;SDS011;30686;52.512;-1.188;2022-09-14T06:49:52;6.60;;;3.70;;
44955;SDS011;30686;52.512;-1.188;2022-09-14T06:52:20;7.50;;;3.70;;
44955;SDS011;30686;52.512;-1.188;2022-09-14T06:54:50;12.25;;;3.53;;
44955;SDS011;30686;52.512;-1.188;2022-09-14T06:57:18;7.13;;;3.58;;
44955;SDS011;30686;52.512;-1.188;2022-09-14T06:59:46;8.30;;;3.50;;
44955;SDS011;30686;52.512;-1.188;2022-09-14T07:02:15;13.27;;;3.58;;
44955;SDS011;30686;52.512;-1.188;2022-09-14T07:04:42;6.53;;;3.40;;
44955;SDS011;30686;52.512;-1.188;2022-09-14T07:07:09;7.50;;;3.80;;
44955;SDS011;30686;52.512;-1.188;2022-09-14T07:09:38;10.43;;;2.83;;
44955;SDS011;30686;52.512;-1.188;2022-09-14T07:12:06;7.78;;;3.22;;
44955;SDS011;30686;52.512;-1.188;2022-09-14T07:14:33;5.10;;;2.88;;
44955;SDS011;30686;52.512;-1.188;2022-09-14T07:17:01;9.60;;;2.70;;
44955;SDS011;30686;52.512;-1.188;2022-09-14T07:19:27;10.98;;;3.55;;
44955;SDS011;30686;52.512;-1.188;2022-09-14T07:21:53;11.90;;;3.50;;
44955;SDS011;30686;52.512;-1.188;2022-09-14T07:24:20;5.35;;;3.08;;
44955;SDS011;30686;52.512;-1.188;2022-09-14T07:26:46;8.88;;;3.95;;
44955;SDS011;30686;52.512;-1.188;2022-09-14T07:29:16;10.30;;;4.28;;
44955;SDS011;30686;52.512;-1.188;2022-09-14T07:31:47;9.15;;;4.10;;
44955;SDS011;30686;52.512;-1.188;2022-09-14T07:34:13;11.30;;;4.60;;
44955;SDS011;30686;52.512;-1.188;2022-09-14T07:36:40;8.52;;;4.30;;
44955;SDS011;30686;52.512;-1.188;2022-09-14T07:39:08;7.30;;;4.03;;
44955;SDS011;30686;52.512;-1.188;2022-09-14T07:41:34;7.13;;;3.80;;
44955;SDS011;30686;52.512;-1.188;2022-09-14T07:44:02;13.60;;;4.25;;
44955;SDS011;30686;52.512;-1.188;2022-09-14T07:46:30;9.57;;;4.82;;
44955;SDS011;30686;52.512;-1.188;2022-09-14T07:49:05;8.77;;;4.25;;
44955;SDS011;30686;52.512;-1.188;2022-09-14T07:51:40;12.05;;;4.72;;
44955;SDS011;30686;52.512;-1.188;2022-09-14T07:54:08;7.82;;;4.18;;
44955;SDS011;30686;52.512;-1.188;2022-09-14T07:56:36;8.13;;;4.15;;
44955;SDS011;30686;52.512;-1.188;2022-09-14T07:59:02;10.25;;;5.28;;
44955;SDS011;30686;52.512;-1.188;2022-09-14T08:01:29;7.07;;;4.63;;
44955;SDS011;30686;52.512;-1.188;2022-09-14T08:03:59;17.92;;;5.22;;
44955;SDS011;30686;52.512;-1.188;2022-09-14T08:06:26;11.13;;;5.53;;
44955;SDS011;30686;52.512;-1.188;2022-09-14T08:08:53;11.60;;;6.07;;
44955;SDS011;30686;52.512;-1.188;2022-09-14T08:13:48;11.73;;;5.72;;
44955;SDS011;30686;52.512;-1.188;2022-09-14T08:16:15;13.35;;;5.82;;
44955;SDS011;30686;52.512;-1.188;2022-09-14T08:18:42;12.40;;;6.47;;
44955;SDS011;30686;52.512;-1.188;2022-09-14T08:21:09;12.88;;;6.28;;
44955;SDS011;30686;52.512;-1.188;2022-09-14T08:23:36;16.55;;;6.10;;
44955;SDS011;30686;52.512;-1.188;2022-09-14T08:26:03;13.05;;;6.18;;
44955;SDS011;30686;52.512;-1.188;2022-09-14T08:28:29;18.90;;;8.35;;
44955;SDS011;30686;52.512;-1.188;2022-09-14T08:31:00;13.25;;;5.82;;
44955;SDS011;30686;52.512;-1.188;2022-09-14T08:33:26;14.75;;;6.65;;
44955;SDS011;30686;52.512;-1.188;2022-09-14T08:35:52;14.82;;;5.88;;
44955;SDS011;30686;52.512;-1.188;2022-09-14T08:38:18;11.00;;;5.78;;
44955;SDS011;30686;52.512;-1.188;2022-09-14T08:40:45;13.63;;;6.40;;
44955;SDS011;30686;52.512;-1.188;2022-09-14T08:43:11;13.02;;;6.63;;
44955;SDS011;30686;52.512;-1.188;2022-09-14T08:45:41;13.10;;;6.75;;
44955;SDS011;30686;52.512;-1.188;2022-09-14T08:48:14;20.55;;;6.63;;
44955;SDS011;30686;52.512;-1.188;2022-09-14T08:50:42;19.13;;;6.78;;
44955;SDS011;30686;52.512;-1.188;2022-09-14T08:53:08;13.27;;;6.53;;
44955;SDS011;30686;52.512;-1.188;2022-09-14T08:55:41;11.07;;;5.90;;
44955;SDS011;30686;52.512;-1.188;2022-09-14T09:08:49;13.93;;;6.47;;
44955;SDS011;30686;52.512;-1.188;2022-09-14T09:11:19;15.27;;;6.10;;
44955;SDS011;30686;52.512;-1.188;2022-09-14T09:13:47;15.05;;;6.32;;
44955;SDS011;30686;52.512;-1.188;2022-09-14T09:16:15;12.43;;;6.00;;
44955;SDS011;30686;52.512;-1.188;2022-09-14T09:18:49;16.67;;;6.35;;
44955;SDS011;30686;52.512;-1.188;2022-09-14T09:21:17;14.60;;;6.05;;
44955;SDS011;30686;52.512;-1.188;2022-09-14T09:23:44;15.55;;;6.97;;
44955;SDS011;30686;52.512;-1.188;2022-09-14T09:28:41;19.63;;;5.70;;
44955;SDS011;30686;52.512;-1.188;2022-09-14T09:31:09;16.67;;;6.40;;
44955;SDS011;30686;52.512;-1.188;2022-09-14T09:33:37;13.05;;;5.47;;
44955;SDS011;30686;52.512;-1.188;2022-09-14T09:36:04;14.13;;;6.20;;
44955;SDS011;30686;52.512;-1.188;2022-09-14T09:38:31;12.10;;;5.30;;
44955;SDS011;30686;52.512;-1.188;2022-09-14T09:40:58;19.40;;;6.03;;
44955;SDS011;30686;52.512;-1.188;2022-09-14T09:43:26;14.93;;;6.53;;
44955;SDS011;30686;52.512;-1.188;2022-09-14T09:48:26;14.13;;;4.93;;
44955;SDS011;30686;52.512;-1.188;2022-09-14T09:50:58;12.00;;;5.75;;
44955;SDS011;30686;52.512;-1.188;2022-09-14T09:53:26;10.77;;;4.97;;
44955;SDS011;30686;52.512;-1.188;2022-09-14T09:55:52;10.73;;;4.78;;
44955;SDS011;30686;52.512;-1.188;2022-09-14T09:58:28;15.15;;;5.03;;
44955;SDS011;30686;52.512;-1.188;2022-09-14T10:00:56;7.45;;;4.25;;
44955;SDS011;30686;52.512;-1.188;2022-09-14T10:03:27;13.10;;;4.28;;
44955;SDS011;30686;52.512;-1.188;2022-09-14T10:06:04;11.32;;;4.40;;
44955;SDS011;30686;52.512;-1.188;2022-09-14T10:08:32;13.25;;;3.70;;
44955;SDS011;30686;52.512;-1.188;2022-09-14T10:11:00;15.45;;;4.68;;
44955;SDS011;30686;52.512;-1.188;2022-09-14T10:13:28;9.00;;;3.90;;
44955;SDS011;30686;52.512;-1.188;2022-09-14T10:18:51;9.75;;;3.00;;
44955;SDS011;30686;52.512;-1.188;2022-09-14T10:21:22;8.40;;;2.40;;
44955;SDS011;30686;52.512;-1.188;2022-09-14T10:24:01;7.68;;;3.20;;
44955;SDS011;30686;52.512;-1.188;2022-09-14T10:26:30;6.28;;;2.55;;
44955;SDS011;30686;52.512;-1.188;2022-09-14T10:29:15;7.03;;;2.50;;
44955;SDS011;30686;52.512;-1.188;2022-09-14T10:31:42;8.05;;;2.88;;
44955;SDS011;30686;52.512;-1.188;2022-09-14T10:34:11;14.80;;;3.05;;
44955;SDS011;30686;52.512;-1.188;2022-09-14T10:36:43;7.18;;;2.25;;
44955;SDS011;30686;52.512;-1.188;2022-09-14T10:39:20;5.88;;;2.83;;
44955;SDS011;30686;52.512;-1.188;2022-09-14T10:41:48;16.05;;;2.80;;
44955;SDS011;30686;52.512;-1.188;2022-09-14T10:52:50;9.95;;;4.22;;
44955;SDS011;30686;52.512;-1.188;2022-09-14T10:57:50;10.40;;;3.90;;
44955;SDS011;30686;52.512;-1.188;2022-09-14T11:00:21;12.63;;;4.03;;
44955;SDS011;30686;52.512;-1.188;2022-09-14T11:13:20;9.88;;;4.72;;
44955;SDS011;30686;52.512;-1.188;2022-09-14T11:25:47;10.27;;;4.32;;
44955;SDS011;30686;52.512;-1.188;2022-09-14T11:28:19;12.80;;;4.20;;
44955;SDS011;30686;52.512;-1.188;2022-09-14T11:33:48;15.05;;;4.75;;
44955;SDS011;30686;52.512;-1.188;2022-09-14T11:36:22;10.45;;;4.05;;
44955;SDS011;30686;52.512;-1.188;2022-09-14T11:38:58;10.10;;;3.90;;
44955;SDS011;30686;52.512;-1.188;2022-09-14T11:41:27;8.00;;;3.10;;
44955;SDS011;30686;52.512;-1.188;2022-09-14T11:44:00;6.13;;;2.72;;
44955;SDS011;30686;52.512;-1.188;2022-09-14T11:46:32;6.13;;;2.53;;
44955;SDS011;30686;52.512;-1.188;2022-09-14T11:49:05;9.32;;;2.78;;
44955;SDS011;30686;52.512;-1.188;2022-09-14T11:54:08;10.57;;;2.65;;
44955;SDS011;30686;52.512;-1.188;2022-09-14T11:56:35;6.53;;;2.70;;
44955;SDS011;30686;52.512;-1.188;2022-09-14T11:59:03;7.30;;;2.90;;
44955;SDS011;30686;52.512;-1.188;2022-09-14T12:11:49;8.30;;;2.35;;
44955;SDS011;30686;52.512;-1.188;2022-09-14T12:19:39;4.13;;;2.10;;
44955;SDS011;30686;52.512;-1.188;2022-09-14T12:25:11;8.27;;;2.67;;
44955;SDS011;30686;52.512;-1.188;2022-09-14T12:27:39;5.85;;;1.88;;
44955;SDS011;30686;52.512;-1.188;2022-09-14T12:32:51;5.07;;;2.40;;
44955;SDS011;30686;52.512;-1.188;2022-09-14T12:38:37;5.65;;;1.95;;
44955;SDS011;30686;52.512;-1.188;2022-09-14T12:40:46;4.80;;;2.35;;
44955;SDS011;30686;52.512;-1.188;2022-09-14T12:43:45;6.45;;;2.40;;
44955;SDS011;30686;52.512;-1.188;2022-09-14T12:46:08;6.45;;;2.42;;
44955;SDS011;30686;52.512;-1.188;2022-09-14T12:53:50;7.40;;;2.10;;
44955;SDS011;30686;52.512;-1.188;2022-09-14T13:01:24;6.60;;;2.25;;
44955;SDS011;30686;52.512;-1.188;2022-09-14T13:03:55;5.05;;;2.20;;
44955;SDS011;30686;52.512;-1.188;2022-09-14T13:06:23;7.95;;;2.08;;
44955;SDS011;30686;52.512;-1.188;2022-09-14T13:08:53;7.32;;;2.90;;
44955;SDS011;30686;52.512;-1.188;2022-09-14T13:11:21;6.88;;;2.40;;
44955;SDS011;30686;52.512;-1.188;2022-09-14T13:13:48;7.28;;;2.45;;
44955;SDS011;30686;52.512;-1.188;2022-09-14T13:16:16;7.65;;;2.00;;
44955;SDS011;30686;52.512;-1.188;2022-09-14T13:18:44;6.45;;;2.20;;
44955;SDS011;30686;52.512;-1.188;2022-09-14T13:21:21;9.90;;;2.33;;
44955;SDS011;30686;52.512;-1.188;2022-09-14T13:23:49;5.57;;;2.00;;
44955;SDS011;30686;52.512;-1.188;2022-09-14T13:26:22;7.40;;;2.10;;
44955;SDS011;30686;52.512;-1.188;2022-09-14T13:31:16;6.15;;;2.13;;
44955;SDS011;30686;52.512;-1.188;2022-09-14T13:33:49;9.73;;;2.47;;
44955;SDS011;30686;52.512;-1.188;2022-09-14T13:36:21;6.75;;;2.50;;
44955;SDS011;30686;52.512;-1.188;2022-09-14T13:38:48;9.85;;;2.78;;
44955;SDS011;30686;52.512;-1.188;2022-09-14T13:41:15;11.43;;;2.50;;
44955;SDS011;30686;52.512;-1.188;2022-09-14T13:43:42;9.15;;;3.50;;
44955;SDS011;30686;52.512;-1.188;2022-09-14T13:46:09;9.50;;;2.53;;
44955;SDS011;30686;52.512;-1.188;2022-09-14T13:48:39;8.52;;;2.60;;
44955;SDS011;30686;52.512;-1.188;2022-09-14T13:51:05;8.35;;;2.47;;
44955;SDS011;30686;52.512;-1.188;2022-09-14T13:53:45;6.22;;;2.58;;
44955;SDS011;30686;52.512;-1.188;2022-09-14T13:58:40;6.05;;;2.30;;
44955;SDS011;30686;52.512;-1.188;2022-09-14T14:01:07;5.60;;;2.30;;
44955;SDS011;30686;52.512;-1.188;2022-09-14T14:03:36;4.18;;;2.33;;
44955;SDS011;30686;52.512;-1.188;2022-09-14T14:06:22;8.13;;;2.67;;
44955;SDS011;30686;52.512;-1.188;2022-09-14T14:08:53;6.75;;;2.80;;
44955;SDS011;30686;52.512;-1.188;2022-09-14T14:11:29;9.18;;;2.58;;
44955;SDS011;30686;52.512;-1.188;2022-09-14T14:13:56;8.32;;;1.92;;
44955;SDS011;30686;52.512;-1.188;2022-09-14T14:16:33;11.68;;;3.67;;
44955;SDS011;30686;52.512;-1.188;2022-09-14T14:18:59;5.13;;;2.13;;
44955;SDS011;30686;52.512;-1.188;2022-09-14T14:21:27;11.80;;;2.58;;
44955;SDS011;30686;52.512;-1.188;2022-09-14T14:24:15;9.75;;;3.38;;
44955;SDS011;30686;52.512;-1.188;2022-09-14T14:26:46;14.45;;;3.67;;
44955;SDS011;30686;52.512;-1.188;2022-09-14T14:29:12;4.75;;;1.92;;
44955;SDS011;30686;52.512;-1.188;2022-09-14T14:31:40;8.68;;;2.53;;
44955;SDS011;30686;52.512;-1.188;2022-09-14T14:34:15;7.13;;;2.38;;
44955;SDS011;30686;52.512;-1.188;2022-09-14T14:36:42;8.65;;;2.28;;
44955;SDS011;30686;52.512;-1.188;2022-09-14T14:39:09;5.05;;;2.00;;
44955;SDS011;30686;52.512;-1.188;2022-09-14T14:41:35;3.85;;;2.20;;
44955;SDS011;30686;52.512;-1.188;2022-09-14T14:44:02;10.00;;;2.38;;
44955;SDS011;30686;52.512;-1.188;2022-09-14T14:46:28;9.30;;;2.20;;
44955;SDS011;30686;52.512;-1.188;2022-09-14T14:48:54;5.32;;;2.00;;
44955;SDS011;30686;52.512;-1.188;2022-09-14T14:51:20;6.15;;;1.98;;
44955;SDS011;30686;52.512;-1.188;2022-09-14T14:53:47;7.80;;;2.20;;
44955;SDS011;30686;52.512;-1.188;2022-09-14T14:56:13;6.78;;;2.15;;
44955;SDS011;30686;52.512;-1.188;2022-09-14T14:58:43;13.30;;;2.33;;
44955;SDS011;30686;52.512;-1.188;2022-09-14T15:01:09;7.05;;;2.00;;
44955;SDS011;30686;52.512;-1.188;2022-09-14T15:03:36;11.75;;;2.70;;
44955;SDS011;30686;52.512;-1.188;2022-09-14T15:06:19;6.25;;;2.05;;
44955;SDS011;30686;52.512;-1.188;2022-09-14T15:08:47;7.43;;;2.13;;
44955;SDS011;30686;52.512;-1.188;2022-09-14T15:11:16;23.13;;;2.15;;
44955;SDS011;30686;52.512;-1.188;2022-09-14T15:13:43;4.78;;;2.00;;
44955;SDS011;30686;52.512;-1.188;2022-09-14T15:16:09;10.02;;;2.15;;
44955;SDS011;30686;52.512;-1.188;2022-09-14T15:18:36;8.05;;;2.35;;
44955;SDS011;30686;52.512;-1.188;2022-09-14T15:21:02;10.93;;;2.13;;
44955;SDS011;30686;52.512;-1.188;2022-09-14T15:23:28;3.80;;;1.73;;
44955;SDS011;30686;52.512;-1.188;2022-09-14T15:25:54;5.53;;;2.15;;
44955;SDS011;30686;52.512;-1.188;2022-09-14T15:28:20;7.07;;;2.58;;
44955;SDS011;30686;52.512;-1.188;2022-09-14T15:30:47;9.73;;;2.47;;
44955;SDS011;30686;52.512;-1.188;2022-09-14T15:33:13;5.32;;;1.92;;
44955;SDS011;30686;52.512;-1.188;2022-09-14T15:35:39;6.20;;;2.42;;
44955;SDS011;30686;52.512;-1.188;2022-09-14T15:38:05;6.28;;;2.05;;
44955;SDS011;30686;52.512;-1.188;2022-09-14T15:40:31;11.93;;;2.47;;
44955;SDS011;30686;52.512;-1.188;2022-09-14T15:42:57;9.07;;;2.10;;
44955;SDS011;30686;52.512;-1.188;2022-09-14T15:45:24;8.85;;;2.03;;
44955;SDS011;30686;52.512;-1.188;2022-09-14T15:47:50;11.82;;;2.00;;
44955;SDS011;30686;52.512;-1.188;2022-09-14T15:50:16;8.52;;;2.20;;
44955;SDS011;30686;52.512;-1.188;2022-09-14T15:52:42;6.35;;;2.10;;
44955;SDS011;30686;52.512;-1.188;2022-09-14T15:55:09;5.90;;;2.33;;
44955;SDS011;30686;52.512;-1.188;2022-09-14T15:57:36;10.10;;;2.20;;
44955;SDS011;30686;52.512;-1.188;2022-09-14T16:00:04;3.65;;;1.50;;
44955;SDS011;30686;52.512;-1.188;2022-09-14T16:02:30;9.27;;;1.65;;
44955;SDS011;30686;52.512;-1.188;2022-09-14T16:04:56;5.15;;;2.30;;
44955;SDS011;30686;52.512;-1.188;2022-09-14T16:07:22;6.80;;;1.55;;
44955;SDS011;30686;52.512;-1.188;2022-09-14T16:09:49;4.07;;;1.67;;
44955;SDS011;30686;52.512;-1.188;2022-09-14T16:12:15;6.55;;;1.80;;
44955;SDS011;30686;52.512;-1.188;2022-09-14T16:14:41;6.57;;;1.98;;
44955;SDS011;30686;52.512;-1.188;2022-09-14T16:17:08;6.18;;;1.98;;
44955;SDS011;30686;52.512;-1.188;2022-09-14T16:19:35;9.32;;;2.22;;
44955;SDS011;30686;52.512;-1.188;2022-09-14T16:22:02;4.90;;;1.95;;
44955;SDS011;30686;52.512;-1.188;2022-09-14T16:24:28;8.05;;;1.80;;
44955;SDS011;30686;52.512;-1.188;2022-09-14T16:26:55;6.47;;;1.88;;
44955;SDS011;30686;52.512;-1.188;2022-09-14T16:29:22;4.57;;;1.70;;
44955;SDS011;30686;52.512;-1.188;2022-09-14T16:31:48;6.28;;;1.65;;
44955;SDS011;30686;52.512;-1.188;2022-09-14T16:34:16;5.45;;;1.48;;
44955;SDS011;30686;52.512;-1.188;2022-09-14T16:36:43;6.35;;;2.17;;
44955;SDS011;30686;52.512;-1.188;2022-09-14T16:39:11;10.10;;;3.15;;